createdAt,value
2018-01-07T00:01:09.850Z,5.30
2018-01-07T00:03:38.133Z,5.40
2018-01-07T00:06:05.634Z,5.50
2018-01-07T00:08:33.117Z,5.50
2018-01-07T00:11:00.592Z,5.50
2018-01-07T00:13:28.050Z,5.50
2018-01-07T00:15:55.535Z,5.50
2018-01-07T00:18:23.760Z,5.60
2018-01-07T00:20:51.243Z,5.70
2018-01-07T00:23:18.701Z,5.60
2018-01-07T00:25:46.178Z,5.60
2018-01-07T00:28:14.402Z,5.60
2018-01-07T00:30:41.871Z,5.90
2018-01-07T00:33:10.123Z,5.80
2018-01-07T00:35:37.615Z,5.60
2018-01-07T00:38:05.082Z,5.60
2018-01-07T00:40:32.583Z,5.70
2018-01-07T00:43:00.064Z,5.80
2018-01-07T00:45:27.543Z,5.70
2018-01-07T00:47:55.031Z,6.10
2018-01-07T00:50:23.280Z,5.80
2018-01-07T00:52:51.538Z,5.80
2018-01-07T00:55:19.018Z,5.70
2018-01-07T00:57:46.494Z,5.80
2018-01-07T01:00:13.971Z,5.80
2018-01-07T01:02:42.223Z,5.70
2018-01-07T01:05:09.685Z,5.70
2018-01-07T01:07:37.154Z,5.80
2018-01-07T01:10:05.389Z,5.80
2018-01-07T01:12:32.860Z,5.60
2018-01-07T01:15:00.331Z,5.80
2018-01-07T01:17:27.799Z,5.80
2018-01-07T01:19:56.034Z,5.80
2018-01-07T01:22:23.501Z,6.10
2018-01-07T01:24:50.981Z,5.80
2018-01-07T01:27:18.455Z,5.80
2018-01-07T01:29:46.710Z,5.70
2018-01-07T01:32:14.204Z,5.60
2018-01-07T01:34:42.454Z,5.50
2018-01-07T01:37:09.922Z,5.50
2018-01-07T01:39:38.176Z,5.40
2018-01-07T01:42:05.656Z,5.40
2018-01-07T01:44:33.119Z,5.40
2018-01-07T01:47:01.364Z,5.40
2018-01-07T01:49:28.814Z,5.30
2018-01-07T01:51:56.336Z,5.40
2018-01-07T01:54:24.703Z,5.40
2018-01-07T01:56:52.190Z,5.40
2018-01-07T01:59:19.645Z,5.40
2018-01-07T02:01:47.135Z,5.50
2018-01-07T02:04:14.599Z,5.50
2018-01-07T02:06:42.066Z,5.50
2018-01-07T02:09:09.535Z,5.50
2018-01-07T02:11:37.011Z,5.40
2018-01-07T02:14:05.233Z,5.40
2018-01-07T02:16:32.697Z,5.50
2018-01-07T02:19:00.158Z,5.30
2018-01-07T02:21:27.621Z,5.20
2018-01-07T02:23:55.093Z,5.20
2018-01-07T02:26:22.541Z,5.20
2018-01-07T02:28:50.014Z,5.00
2018-01-07T02:31:18.264Z,5.00
2018-01-07T02:33:46.502Z,4.90
2018-01-07T02:36:14.798Z,4.80
2018-01-07T02:38:42.265Z,4.80
2018-01-07T02:41:09.731Z,4.90
2018-01-07T02:43:37.203Z,4.90
2018-01-07T02:46:04.659Z,4.80
2018-01-07T02:48:32.138Z,4.80
2018-01-07T02:50:59.645Z,4.80
2018-01-07T02:53:27.133Z,4.70
2018-01-07T02:55:54.593Z,4.80
2018-01-07T02:58:22.078Z,4.80
2018-01-07T03:00:50.301Z,4.70
2018-01-07T03:03:17.794Z,4.70
2018-01-07T03:05:45.264Z,4.70
2018-01-07T03:08:13.512Z,4.60
2018-01-07T03:10:40.981Z,4.90
2018-01-07T03:13:08.455Z,4.60
2018-01-07T03:15:35.931Z,4.70
2018-01-07T03:18:04.161Z,4.70
2018-01-07T03:20:31.630Z,4.70
2018-01-07T03:22:59.111Z,4.70
2018-01-07T03:25:27.344Z,4.80
2018-01-07T03:27:54.856Z,4.60
2018-01-07T03:30:23.084Z,4.80
2018-01-07T03:32:50.579Z,4.90
2018-01-07T03:35:18.815Z,4.80
2018-01-07T03:37:46.300Z,4.80
2018-01-07T03:40:13.774Z,4.70
2018-01-07T03:42:42.026Z,4.80
2018-01-07T03:45:09.494Z,5.10
2018-01-07T03:47:36.971Z,4.80
2018-01-07T03:50:05.212Z,5.00
2018-01-07T03:52:32.689Z,4.80
2018-01-07T03:55:01.565Z,4.70
2018-01-07T03:57:29.039Z,4.80
2018-01-07T03:59:56.508Z,4.80
2018-01-07T04:02:23.978Z,4.80
2018-01-07T04:04:51.447Z,4.80
2018-01-07T04:07:18.910Z,4.80
2018-01-07T04:09:46.383Z,4.90
2018-01-07T04:12:13.886Z,4.70
2018-01-07T04:14:41.348Z,4.70
2018-01-07T04:17:09.491Z,4.80
2018-01-07T04:19:36.950Z,4.80
2018-01-07T04:22:05.211Z,4.70
2018-01-07T04:24:32.686Z,4.70
2018-01-07T04:27:00.155Z,4.70
2018-01-07T04:29:27.639Z,4.60
2018-01-07T04:31:55.875Z,4.60
2018-01-07T04:34:23.347Z,4.70
2018-01-07T04:36:50.825Z,4.60
2018-01-07T04:39:18.290Z,4.60
2018-01-07T04:41:46.528Z,4.60
2018-01-07T04:44:14.026Z,4.80
2018-01-07T04:46:42.267Z,4.60
2018-01-07T04:49:09.739Z,4.70
2018-01-07T04:51:37.208Z,4.50
2018-01-07T04:54:04.688Z,4.60
2018-01-07T04:56:32.162Z,4.60
2018-01-07T04:58:59.640Z,4.60
2018-01-07T05:01:27.120Z,4.60
2018-01-07T05:03:54.599Z,4.50
2018-01-07T05:06:22.070Z,4.50
2018-01-07T05:08:50.323Z,4.50
2018-01-07T05:11:17.790Z,4.60
2018-01-07T05:13:45.268Z,4.50
2018-01-07T05:16:13.501Z,4.60
2018-01-07T05:18:40.975Z,4.40
2018-01-07T05:21:08.435Z,4.60
2018-01-07T05:23:35.910Z,4.40
2018-01-07T05:26:04.148Z,4.70
2018-01-07T05:28:31.622Z,4.60
2018-01-07T05:30:59.091Z,4.60
2018-01-07T05:33:26.559Z,4.50
2018-01-07T05:35:54.810Z,4.40
2018-01-07T05:38:22.286Z,4.60
2018-01-07T05:40:50.528Z,4.50
2018-01-07T05:43:18.007Z,4.60
2018-01-07T05:45:45.477Z,4.40
2018-01-07T05:48:12.956Z,4.50
2018-01-07T05:50:41.190Z,4.50
2018-01-07T05:53:09.434Z,4.40
2018-01-07T05:55:36.909Z,4.50
2018-01-07T05:58:04.396Z,4.60
2018-01-07T06:00:31.859Z,4.40
2018-01-07T06:02:59.322Z,4.00
2018-01-07T06:05:27.564Z,4.20
2018-01-07T06:07:55.036Z,4.20
2018-01-07T06:10:22.495Z,4.30
2018-01-07T06:12:49.972Z,4.00
2018-01-07T06:15:17.448Z,4.00
2018-01-07T06:17:45.687Z,3.90
2018-01-07T06:20:13.151Z,3.90
2018-01-07T06:22:40.632Z,3.90
2018-01-07T06:25:08.900Z,4.10
2018-01-07T06:27:36.373Z,4.30
2018-01-07T06:30:04.639Z,4.30
2018-01-07T06:32:32.871Z,4.30
2018-01-07T06:35:00.347Z,4.10
2018-01-07T06:37:27.824Z,3.90
2018-01-07T06:39:55.295Z,3.90
2018-01-07T06:42:23.542Z,4.30
2018-01-07T06:44:51.023Z,4.20
2018-01-07T06:47:18.497Z,4.30
2018-01-07T06:49:46.733Z,4.10
2018-01-07T06:52:14.204Z,3.80
2018-01-07T06:54:41.691Z,4.10
2018-01-07T06:57:09.989Z,3.90
2018-01-07T06:59:37.479Z,4.00
2018-01-07T07:02:04.943Z,3.90
2018-01-07T07:04:32.432Z,4.00
2018-01-07T07:06:59.898Z,3.90
2018-01-07T07:09:28.151Z,4.00
2018-01-07T07:11:55.629Z,4.00
2018-01-07T07:14:23.875Z,4.10
2018-01-07T07:16:51.362Z,4.10
2018-01-07T07:19:19.605Z,3.60
2018-01-07T07:21:47.082Z,3.70
2018-01-07T07:24:14.567Z,3.60
2018-01-07T07:26:42.033Z,4.00
2018-01-07T07:29:09.536Z,3.40
2018-01-07T07:31:37.009Z,3.60
2018-01-07T07:34:04.488Z,3.50
2018-01-07T07:36:32.727Z,3.60
2018-01-07T07:39:00.220Z,3.50
2018-01-07T07:41:28.459Z,3.90
2018-01-07T07:43:55.951Z,3.60
2018-01-07T07:46:24.196Z,4.00
2018-01-07T07:48:51.676Z,3.80
2018-01-07T07:51:19.150Z,3.80
2018-01-07T07:53:47.407Z,3.70
2018-01-07T07:56:14.866Z,3.80
2018-01-07T07:58:42.356Z,3.90
2018-01-07T08:01:09.825Z,3.40
2018-01-07T08:03:37.304Z,3.50
2018-01-07T08:06:04.767Z,3.70
2018-01-07T08:08:32.267Z,3.50
2018-01-07T08:11:00.515Z,3.40
2018-01-07T08:13:27.991Z,3.60
2018-01-07T08:15:55.454Z,3.60
2018-01-07T08:18:23.710Z,3.40
2018-01-07T08:20:51.204Z,3.40
2018-01-07T08:23:19.438Z,3.20
2018-01-07T08:25:46.931Z,3.30
2018-01-07T08:28:15.159Z,3.20
2018-01-07T08:30:42.644Z,3.40
2018-01-07T08:33:10.099Z,3.20
2018-01-07T08:35:37.583Z,3.30
2018-01-07T08:38:05.817Z,3.50
2018-01-07T08:40:33.287Z,3.30
2018-01-07T08:43:00.750Z,3.20
2018-01-07T08:45:28.237Z,3.20
2018-01-07T08:47:56.482Z,3.10
2018-01-07T08:50:23.967Z,3.20
2018-01-07T08:52:52.204Z,3.20
2018-01-07T08:55:19.675Z,3.20
2018-01-07T08:57:47.147Z,3.30
2018-01-07T09:00:14.633Z,3.10
2018-01-07T09:02:42.890Z,3.20
2018-01-07T09:05:10.372Z,3.40
2018-01-07T09:07:37.851Z,3.40
2018-01-07T09:10:05.332Z,3.10
2018-01-07T09:12:33.568Z,3.30
2018-01-07T09:15:01.046Z,3.30
2018-01-07T09:17:28.531Z,3.30
2018-01-07T09:19:56.791Z,3.50
2018-01-07T09:22:24.255Z,3.20
2018-01-07T09:24:51.815Z,3.40
2018-01-07T09:27:19.286Z,3.10
2018-01-07T09:29:46.748Z,3.10
2018-01-07T09:32:14.242Z,3.20
2018-01-07T09:34:42.481Z,3.40
2018-01-07T09:37:09.950Z,3.20
2018-01-07T09:39:37.447Z,3.10
2018-01-07T09:42:04.907Z,3.30
2018-01-07T09:44:32.387Z,3.00
2018-01-07T09:46:59.842Z,3.40
2018-01-07T09:49:27.323Z,3.50
2018-01-07T09:51:54.787Z,3.20
2018-01-07T09:54:22.284Z,3.30
2018-01-07T09:56:49.751Z,3.20
2018-01-07T09:59:17.241Z,3.30
2018-01-07T10:01:45.479Z,3.20
2018-01-07T10:04:12.993Z,3.30
2018-01-07T10:06:40.468Z,3.30
2018-01-07T10:09:07.957Z,3.40
2018-01-07T10:11:35.427Z,3.50
2018-01-07T10:14:02.936Z,3.40
2018-01-07T10:16:30.405Z,3.40
2018-01-07T10:18:57.877Z,3.40
2018-01-07T10:21:26.130Z,3.70
2018-01-07T10:23:53.600Z,3.60
2018-01-07T10:26:21.079Z,3.70
2018-01-07T10:28:48.562Z,3.50
2018-01-07T10:31:16.055Z,3.50
2018-01-07T10:33:43.521Z,3.60
2018-01-07T10:36:11.028Z,3.50
2018-01-07T10:38:38.492Z,3.50
2018-01-07T10:41:05.984Z,3.50
2018-01-07T10:43:33.483Z,3.40
2018-01-07T10:46:01.742Z,3.30
2018-01-07T10:48:29.203Z,3.60
2018-01-07T10:50:57.447Z,3.30
2018-01-07T10:53:24.931Z,3.60
2018-01-07T10:55:52.420Z,3.60
2018-01-07T10:58:19.896Z,3.80
2018-01-07T11:00:52.960Z,3.60
2018-01-07T11:03:21.199Z,3.70
2018-01-07T11:05:48.683Z,3.50
2018-01-07T11:08:16.920Z,3.40
2018-01-07T11:10:44.400Z,3.60
2018-01-07T11:13:11.874Z,3.70
2018-01-07T11:15:40.123Z,3.70
2018-01-07T11:18:07.617Z,3.80
2018-01-07T11:20:35.868Z,3.60
2018-01-07T11:23:03.340Z,3.80
2018-01-07T11:25:31.590Z,3.90
2018-01-07T11:27:59.832Z,3.40
2018-01-07T11:30:27.312Z,3.40
2018-01-07T11:32:54.799Z,3.50
2018-01-07T11:35:22.279Z,3.40
2018-01-07T11:37:50.520Z,3.70
2018-01-07T11:40:17.999Z,3.40
2018-01-07T11:42:45.463Z,3.50
2018-01-07T11:45:13.712Z,3.60
2018-01-07T11:47:41.208Z,3.70
2018-01-07T11:50:09.442Z,3.50
2018-01-07T11:52:36.929Z,3.50
2018-01-07T11:55:05.170Z,3.50
2018-01-07T11:57:32.648Z,3.50
2018-01-07T12:00:00.118Z,3.40
2018-01-07T12:02:28.359Z,3.30
2018-01-07T12:04:55.964Z,3.40
2018-01-07T12:07:23.452Z,3.70
2018-01-07T12:09:50.940Z,3.50
2018-01-07T12:12:18.408Z,3.70
2018-01-07T12:14:45.918Z,3.70
2018-01-07T12:17:13.396Z,4.00
2018-01-07T12:19:40.894Z,3.70
2018-01-07T12:22:08.359Z,3.90
2018-01-07T12:24:35.830Z,3.90
2018-01-07T12:27:04.082Z,4.10
2018-01-07T12:29:31.601Z,3.80
2018-01-07T12:31:59.806Z,3.80
2018-01-07T12:34:27.262Z,3.80
2018-01-07T12:36:54.748Z,3.70
2018-01-07T12:39:22.221Z,3.90
2018-01-07T12:41:50.468Z,3.90
2018-01-07T12:44:17.935Z,3.80
2018-01-07T12:46:46.182Z,3.60
2018-01-07T12:49:13.651Z,3.60
2018-01-07T12:51:41.142Z,3.70
2018-01-07T12:54:09.392Z,3.80
2018-01-07T12:56:36.875Z,3.80
2018-01-07T12:59:05.127Z,3.90
2018-01-07T13:01:32.594Z,3.80
2018-01-07T13:04:00.096Z,4.10
2018-01-07T13:06:27.580Z,4.00
2018-01-07T13:08:55.048Z,4.00
2018-01-07T13:11:22.514Z,4.30
2018-01-07T13:13:49.976Z,4.10
2018-01-07T13:16:17.454Z,4.10
2018-01-07T13:18:45.692Z,4.10
2018-01-07T13:21:13.170Z,3.80
2018-01-07T13:23:40.643Z,3.90
2018-01-07T13:26:08.103Z,4.00
2018-01-07T13:28:36.336Z,3.90
2018-01-07T13:31:03.833Z,4.00
2018-01-07T13:33:31.386Z,4.00
2018-01-07T13:35:58.846Z,4.20
2018-01-07T13:38:26.372Z,4.00
2018-01-07T13:40:54.095Z,3.90
2018-01-07T13:43:22.342Z,4.30
2018-01-07T13:45:49.808Z,4.10
2018-01-07T13:48:17.271Z,4.20
2018-01-07T13:50:45.551Z,4.20
2018-01-07T13:53:13.037Z,3.80
2018-01-07T13:55:40.506Z,4.30
2018-01-07T13:58:07.975Z,3.90
2018-01-07T14:00:35.472Z,3.90
2018-01-07T14:03:02.944Z,3.90
2018-01-07T14:05:31.174Z,4.00
2018-01-07T14:07:58.659Z,4.20
2018-01-07T14:10:26.123Z,3.90
2018-01-07T14:12:53.598Z,3.80
2018-01-07T14:15:21.823Z,3.70
2018-01-07T14:17:49.303Z,4.00
2018-01-07T14:20:16.791Z,3.70
2018-01-07T14:22:45.031Z,4.10
2018-01-07T14:25:12.515Z,3.70
2018-01-07T14:27:40.005Z,3.60
2018-01-07T14:30:08.229Z,3.70
2018-01-07T14:32:35.723Z,3.70
2018-01-07T14:35:03.176Z,3.80
2018-01-07T14:37:31.419Z,3.70
2018-01-07T14:39:58.895Z,3.90
2018-01-07T14:42:26.375Z,3.70
2018-01-07T14:44:54.613Z,3.60
2018-01-07T14:47:22.080Z,3.50
2018-01-07T14:49:49.553Z,3.50
2018-01-07T14:52:17.804Z,3.50
2018-01-07T14:54:45.271Z,3.50
2018-01-07T14:57:12.738Z,3.70
2018-01-07T14:59:40.215Z,3.60
2018-01-07T15:02:08.453Z,3.40
2018-01-07T15:04:35.939Z,3.60
2018-01-07T15:07:04.200Z,3.40
2018-01-07T15:09:31.675Z,3.50
2018-01-07T15:11:59.944Z,3.40
2018-01-07T15:14:28.155Z,3.40
2018-01-07T15:16:55.667Z,3.40
2018-01-07T15:19:23.159Z,3.50
2018-01-07T15:21:51.387Z,3.40
2018-01-07T15:24:18.884Z,3.30
2018-01-07T15:26:47.118Z,3.40
2018-01-07T15:29:14.603Z,3.60
2018-01-07T15:31:42.064Z,3.40
2018-01-07T15:34:09.547Z,3.20
2018-01-07T15:36:37.780Z,3.30
2018-01-07T15:39:05.252Z,3.20
2018-01-07T15:41:32.711Z,3.10
2018-01-07T15:44:00.274Z,3.40
2018-01-07T15:46:27.697Z,3.30
2018-01-07T15:48:55.166Z,3.20
2018-01-07T15:51:32.291Z,3.40
2018-01-07T15:54:00.539Z,3.30
2018-01-07T15:56:27.998Z,3.40
2018-01-07T15:58:55.476Z,3.30
2018-01-07T16:01:23.697Z,3.30
2018-01-07T16:03:51.173Z,3.20
2018-01-07T16:06:18.656Z,3.40
2018-01-07T16:08:46.111Z,3.40
2018-01-07T16:11:13.595Z,3.30
2018-01-07T16:13:41.829Z,3.50
2018-01-07T16:16:09.298Z,3.20
2018-01-07T16:18:36.771Z,3.50
2018-01-07T16:21:05.019Z,3.30
2018-01-07T16:23:32.489Z,3.30
2018-01-07T16:25:59.957Z,3.10
2018-01-07T16:28:27.435Z,3.20
2018-01-07T16:30:55.672Z,3.30
2018-01-07T16:33:23.138Z,3.10
2018-01-07T16:35:50.623Z,3.10
2018-01-07T16:38:18.860Z,3.20
2018-01-07T16:40:46.347Z,3.00
2018-01-07T16:43:13.815Z,2.90
2018-01-07T16:45:42.050Z,3.00
2018-01-07T16:48:09.510Z,2.90
2018-01-07T16:50:37.528Z,3.00
2018-01-07T16:53:05.766Z,3.20
2018-01-07T16:55:33.248Z,3.10
2018-01-07T16:58:01.489Z,2.90
2018-01-07T17:00:28.976Z,2.80
2018-01-07T17:02:57.208Z,2.80
2018-01-07T17:05:24.676Z,2.80
2018-01-07T17:07:52.148Z,2.90
2018-01-07T17:10:19.616Z,2.70
2018-01-07T17:12:47.117Z,2.80
2018-01-07T17:15:14.587Z,2.70
2018-01-07T17:17:42.052Z,2.90
2018-01-07T17:20:09.514Z,2.90
2018-01-07T17:22:37.007Z,2.80
2018-01-07T17:25:04.485Z,2.90
2018-01-07T17:27:32.730Z,2.90
2018-01-07T17:30:00.196Z,2.80
2018-01-07T17:32:27.679Z,2.80
2018-01-07T17:34:55.911Z,2.70
2018-01-07T17:37:23.395Z,2.90
2018-01-07T17:39:50.869Z,2.70
2018-01-07T17:42:19.119Z,2.90
2018-01-07T17:44:46.595Z,2.60
2018-01-07T17:47:14.079Z,2.90
2018-01-07T17:49:41.534Z,2.80
2018-01-07T17:52:09.008Z,2.80
2018-01-07T17:54:36.480Z,2.80
2018-01-07T17:57:03.960Z,2.90
2018-01-07T17:59:31.427Z,2.80
2018-01-07T18:01:58.905Z,2.90
2018-01-07T18:04:26.379Z,2.90
2018-01-07T18:06:54.623Z,2.80
2018-01-07T18:09:22.092Z,2.90
2018-01-07T18:11:49.568Z,2.70
2018-01-07T18:14:17.812Z,2.70
2018-01-07T18:16:45.310Z,2.80
2018-01-07T18:19:12.780Z,2.90
2018-01-07T18:21:40.268Z,2.70
2018-01-07T18:24:07.736Z,2.50
2018-01-07T18:26:35.207Z,2.60
2018-01-07T18:29:02.689Z,2.70
2018-01-07T18:31:30.920Z,2.50
2018-01-07T18:33:58.395Z,2.70
2018-01-07T18:36:25.868Z,2.70
2018-01-07T18:38:53.339Z,2.50
2018-01-07T18:41:21.574Z,2.60
2018-01-07T18:43:49.055Z,2.90
2018-01-07T18:46:16.594Z,2.70
2018-01-07T18:48:44.031Z,2.70
2018-01-07T18:51:11.499Z,2.70
2018-01-07T18:53:38.970Z,2.80
2018-01-07T18:56:06.459Z,2.70
2018-01-07T18:58:34.716Z,2.70
2018-01-07T19:01:02.185Z,2.70
2018-01-07T19:06:22.392Z,2.80
2018-01-07T19:08:49.866Z,2.50
2018-01-07T19:11:18.212Z,2.50
2018-01-07T19:13:45.716Z,2.60
2018-01-07T19:16:13.250Z,2.60
2018-01-07T19:18:40.790Z,2.50
2018-01-07T19:21:08.267Z,2.50
2018-01-07T19:23:35.734Z,2.40
2018-01-07T19:26:03.965Z,2.60
2018-01-07T19:28:31.430Z,2.60
2018-01-07T19:30:58.900Z,2.50
2018-01-07T19:33:26.418Z,2.50
2018-01-07T19:35:54.623Z,2.50
2018-01-07T19:38:22.871Z,2.50
2018-01-07T19:40:50.357Z,2.60
2018-01-07T19:43:17.822Z,2.70
2018-01-07T19:45:45.598Z,2.60
2018-01-07T19:48:13.090Z,2.60
2018-01-07T19:50:40.566Z,2.30
2018-01-07T19:53:08.034Z,2.30
2018-01-07T19:55:35.504Z,2.50
2018-01-07T19:58:02.979Z,2.40
2018-01-07T20:00:30.452Z,2.70
2018-01-07T20:02:57.927Z,2.40
2018-01-07T20:05:26.163Z,2.50
2018-01-07T20:07:53.630Z,2.60
2018-01-07T20:10:21.120Z,2.50
2018-01-07T20:12:49.353Z,2.50
2018-01-07T20:15:16.811Z,2.20
2018-01-07T20:17:44.501Z,2.50
2018-01-07T20:20:12.864Z,2.60
2018-01-07T20:22:40.365Z,2.60
2018-01-07T20:25:08.591Z,2.70
2018-01-07T20:27:36.082Z,2.60
2018-01-07T20:30:04.339Z,2.60
2018-01-07T20:32:31.823Z,2.60
2018-01-07T20:35:00.075Z,2.60
2018-01-07T20:37:27.563Z,2.60
2018-01-07T20:39:55.796Z,2.20
2018-01-07T20:42:23.262Z,2.60
2018-01-07T20:44:50.743Z,2.40
2018-01-07T20:47:18.979Z,2.40
2018-01-07T20:49:46.455Z,2.50
2018-01-07T20:52:13.932Z,2.70
2018-01-07T20:54:42.180Z,2.80
2018-01-07T20:57:10.490Z,2.80
2018-01-07T20:59:38.731Z,2.50
2018-01-07T21:02:07.557Z,2.60
2018-01-07T21:04:35.791Z,2.30
2018-01-07T21:07:03.263Z,2.30
2018-01-07T21:09:31.488Z,2.50
2018-01-07T21:11:58.955Z,2.40
2018-01-07T21:14:26.431Z,2.30
2018-01-07T21:16:53.896Z,2.40
2018-01-07T21:19:21.375Z,2.60
2018-01-07T21:21:48.852Z,2.80
2018-01-07T21:24:17.097Z,2.60
2018-01-07T21:26:44.663Z,2.50
2018-01-07T21:29:12.164Z,2.60
2018-01-07T21:31:40.400Z,2.50
2018-01-07T21:34:07.975Z,2.30
2018-01-07T21:36:35.447Z,2.30
2018-01-07T21:39:03.691Z,2.40
2018-01-07T21:41:31.162Z,2.40
2018-01-07T21:43:59.434Z,2.10
2018-01-07T21:46:26.917Z,2.40
2018-01-07T21:48:55.162Z,2.40
2018-01-07T21:51:22.654Z,2.10
2018-01-07T21:53:50.110Z,2.50
2018-01-07T21:56:19.279Z,2.40
2018-01-07T21:58:46.763Z,2.50
2018-01-07T22:01:26.927Z,2.50
2018-01-07T22:03:59.073Z,2.00
2018-01-07T22:06:38.538Z,2.40
2018-01-07T22:09:06.025Z,2.20
2018-01-07T22:11:33.499Z,2.40
2018-01-07T22:14:00.978Z,2.40
2018-01-07T22:16:28.450Z,2.10
2018-01-07T22:18:55.932Z,2.20
2018-01-07T22:21:24.171Z,2.50
2018-01-07T22:23:51.647Z,2.20
2018-01-07T22:26:19.879Z,2.50
2018-01-07T22:28:47.358Z,2.50
2018-01-07T22:31:14.835Z,2.60
2018-01-07T22:33:42.308Z,2.50
2018-01-07T22:36:10.543Z,2.70
2018-01-07T22:38:38.031Z,2.60
2018-01-07T22:41:05.473Z,2.70
2018-01-07T22:43:32.951Z,2.80
2018-01-07T22:46:01.184Z,2.60
2018-01-07T22:48:28.675Z,2.50
2018-01-07T22:50:56.143Z,2.20
2018-01-07T22:53:23.609Z,2.60
2018-01-07T22:55:51.845Z,2.20
2018-01-07T22:58:19.332Z,2.40
2018-01-07T23:00:47.562Z,2.40
2018-01-07T23:03:15.048Z,2.20
2018-01-07T23:05:42.507Z,2.50
2018-01-07T23:08:09.971Z,2.50
2018-01-07T23:10:37.429Z,2.20
2018-01-07T23:13:04.891Z,1.90
2018-01-07T23:15:32.358Z,2.30
2018-01-07T23:18:00.599Z,2.10
2018-01-07T23:20:28.075Z,2.10
2018-01-07T23:22:55.546Z,2.20
2018-01-07T23:25:23.015Z,2.10
2018-01-07T23:27:51.242Z,2.10
2018-01-07T23:30:18.715Z,1.90
2018-01-07T23:32:46.183Z,2.10
2018-01-07T23:35:13.702Z,1.70
2018-01-07T23:37:41.172Z,2.00
2018-01-07T23:40:08.647Z,2.00
2018-01-07T23:42:36.111Z,2.00
2018-01-07T23:45:03.583Z,1.70
2018-01-07T23:47:31.062Z,2.00
2018-01-07T23:49:59.306Z,1.90
2018-01-07T23:52:26.776Z,2.10
2018-01-07T23:54:54.252Z,1.80
2018-01-07T23:57:22.479Z,1.80
2018-01-07T23:59:49.959Z,1.90
